sensor_id;sensor_type;location;lat;lon;timestamp;P1;durP1;ratioP1;P2;durP2;ratioP2
3070;SDS011;1546;47.208;9.038;2023-02-15T00:02:01;10.38;;;3.30;;
3070;SDS011;1546;47.208;9.038;2023-02-15T00:04:28;5.47;;;2.60;;
3070;SDS011;1546;47.208;9.038;2023-02-15T00:07:11;5.85;;;2.83;;
3070;SDS011;1546;47.208;9.038;2023-02-15T00:09:39;6.95;;;4.00;;
3070;SDS011;1546;47.208;9.038;2023-02-15T00:12:06;10.48;;;4.15;;
3070;SDS011;1546;47.208;9.038;2023-02-15T00:14:34;9.95;;;5.20;;
3070;SDS011;1546;47.208;9.038;2023-02-15T00:17:01;10.55;;;4.78;;
3070;SDS011;1546;47.208;9.038;2023-02-15T00:19:28;9.98;;;5.43;;
3070;SDS011;1546;47.208;9.038;2023-02-15T00:21:55;16.65;;;7.68;;
3070;SDS011;1546;47.208;9.038;2023-02-15T00:24:22;16.20;;;8.13;;
3070;SDS011;1546;47.208;9.038;2023-02-15T00:26:49;13.45;;;5.57;;
3070;SDS011;1546;47.208;9.038;2023-02-15T00:29:16;10.38;;;5.25;;
3070;SDS011;1546;47.208;9.038;2023-02-15T00:31:46;8.32;;;3.90;;
3070;SDS011;1546;47.208;9.038;2023-02-15T00:34:13;9.25;;;4.65;;
3070;SDS011;1546;47.208;9.038;2023-02-15T00:36:41;17.23;;;8.30;;
3070;SDS011;1546;47.208;9.038;2023-02-15T00:39:08;16.88;;;8.20;;
3070;SDS011;1546;47.208;9.038;2023-02-15T00:41:35;11.52;;;5.22;;
3070;SDS011;1546;47.208;9.038;2023-02-15T00:44:02;11.07;;;5.22;;
3070;SDS011;1546;47.208;9.038;2023-02-15T00:46:30;8.40;;;4.78;;
3070;SDS011;1546;47.208;9.038;2023-02-15T00:48:58;10.65;;;4.68;;
3070;SDS011;1546;47.208;9.038;2023-02-15T00:51:25;12.82;;;6.60;;
3070;SDS011;1546;47.208;9.038;2023-02-15T00:53:52;10.38;;;4.88;;
3070;SDS011;1546;47.208;9.038;2023-02-15T00:56:19;14.23;;;4.72;;
3070;SDS011;1546;47.208;9.038;2023-02-15T00:58:46;11.52;;;6.22;;
3070;SDS011;1546;47.208;9.038;2023-02-15T01:01:14;13.90;;;7.88;;
3070;SDS011;1546;47.208;9.038;2023-02-15T01:03:42;22.05;;;9.05;;
3070;SDS011;1546;47.208;9.038;2023-02-15T01:06:10;15.80;;;8.25;;
3070;SDS011;1546;47.208;9.038;2023-02-15T01:08:37;17.23;;;9.27;;
3070;SDS011;1546;47.208;9.038;2023-02-15T01:11:04;35.60;;;13.65;;
3070;SDS011;1546;47.208;9.038;2023-02-15T01:13:32;18.38;;;11.27;;
3070;SDS011;1546;47.208;9.038;2023-02-15T01:15:59;21.33;;;10.38;;
3070;SDS011;1546;47.208;9.038;2023-02-15T01:18:26;16.50;;;7.75;;
3070;SDS011;1546;47.208;9.038;2023-02-15T01:20:53;17.98;;;9.30;;
3070;SDS011;1546;47.208;9.038;2023-02-15T01:23:21;18.20;;;9.82;;
3070;SDS011;1546;47.208;9.038;2023-02-15T01:25:49;18.73;;;9.32;;
3070;SDS011;1546;47.208;9.038;2023-02-15T01:28:15;19.25;;;9.05;;
3070;SDS011;1546;47.208;9.038;2023-02-15T01:30:42;17.20;;;9.88;;
3070;SDS011;1546;47.208;9.038;2023-02-15T01:33:09;25.23;;;13.30;;
3070;SDS011;1546;47.208;9.038;2023-02-15T01:35:42;34.47;;;16.08;;
3070;SDS011;1546;47.208;9.038;2023-02-15T01:38:10;32.13;;;14.52;;
3070;SDS011;1546;47.208;9.038;2023-02-15T01:40:38;24.80;;;12.63;;
3070;SDS011;1546;47.208;9.038;2023-02-15T01:43:07;25.65;;;12.63;;
3070;SDS011;1546;47.208;9.038;2023-02-15T01:45:36;21.30;;;12.90;;
3070;SDS011;1546;47.208;9.038;2023-02-15T01:48:03;26.42;;;13.57;;
3070;SDS011;1546;47.208;9.038;2023-02-15T01:50:32;21.85;;;13.48;;
3070;SDS011;1546;47.208;9.038;2023-02-15T01:53:01;25.60;;;15.05;;
3070;SDS011;1546;47.208;9.038;2023-02-15T01:55:32;28.60;;;15.43;;
3070;SDS011;1546;47.208;9.038;2023-02-15T01:58:04;30.90;;;16.00;;
3070;SDS011;1546;47.208;9.038;2023-02-15T02:00:31;31.75;;;15.63;;
3070;SDS011;1546;47.208;9.038;2023-02-15T02:02:59;26.98;;;13.40;;
3070;SDS011;1546;47.208;9.038;2023-02-15T02:05:27;19.48;;;12.18;;
3070;SDS011;1546;47.208;9.038;2023-02-15T02:07:56;27.17;;;14.80;;
3070;SDS011;1546;47.208;9.038;2023-02-15T02:10:24;29.67;;;14.32;;
3070;SDS011;1546;47.208;9.038;2023-02-15T02:12:52;31.52;;;15.45;;
3070;SDS011;1546;47.208;9.038;2023-02-15T02:15:26;30.75;;;14.98;;
3070;SDS011;1546;47.208;9.038;2023-02-15T02:18:03;26.13;;;13.30;;
3070;SDS011;1546;47.208;9.038;2023-02-15T02:23:51;36.22;;;14.93;;
3070;SDS011;1546;47.208;9.038;2023-02-15T02:29:57;147.90;;;21.98;;
3070;SDS011;1546;47.208;9.038;2023-02-15T02:35:43;27.83;;;13.52;;
3070;SDS011;1546;47.208;9.038;2023-02-15T02:38:17;36.55;;;16.73;;
3070;SDS011;1546;47.208;9.038;2023-02-15T02:40:53;41.80;;;18.55;;
3070;SDS011;1546;47.208;9.038;2023-02-15T02:43:35;46.05;;;18.95;;
3070;SDS011;1546;47.208;9.038;2023-02-15T02:46:09;47.40;;;16.42;;
3070;SDS011;1546;47.208;9.038;2023-02-15T02:48:41;25.83;;;14.88;;
3070;SDS011;1546;47.208;9.038;2023-02-15T02:51:08;42.80;;;15.20;;
3070;SDS011;1546;47.208;9.038;2023-02-15T02:53:35;86.18;;;20.48;;
3070;SDS011;1546;47.208;9.038;2023-02-15T02:56:03;45.22;;;17.10;;
3070;SDS011;1546;47.208;9.038;2023-02-15T02:58:35;245.80;;;32.88;;
3070;SDS011;1546;47.208;9.038;2023-02-15T03:01:06;58.30;;;18.58;;
3070;SDS011;1546;47.208;9.038;2023-02-15T03:03:39;46.92;;;16.08;;
3070;SDS011;1546;47.208;9.038;2023-02-15T03:06:10;56.70;;;17.98;;
3070;SDS011;1546;47.208;9.038;2023-02-15T03:08:43;86.78;;;21.45;;
3070;SDS011;1546;47.208;9.038;2023-02-15T03:11:13;69.20;;;19.20;;
3070;SDS011;1546;47.208;9.038;2023-02-15T03:13:40;80.13;;;16.95;;
3070;SDS011;1546;47.208;9.038;2023-02-15T03:16:08;165.68;;;28.42;;
3070;SDS011;1546;47.208;9.038;2023-02-15T03:18:53;54.90;;;15.73;;
3070;SDS011;1546;47.208;9.038;2023-02-15T03:21:24;105.90;;;26.13;;
3070;SDS011;1546;47.208;9.038;2023-02-15T03:23:57;355.08;;;38.88;;
3070;SDS011;1546;47.208;9.038;2023-02-15T03:26:30;46.72;;;15.52;;
3070;SDS011;1546;47.208;9.038;2023-02-15T03:28:58;81.00;;;18.20;;
3070;SDS011;1546;47.208;9.038;2023-02-15T03:31:28;151.32;;;25.42;;
3070;SDS011;1546;47.208;9.038;2023-02-15T03:34:00;154.00;;;27.30;;
3070;SDS011;1546;47.208;9.038;2023-02-15T03:36:31;25.38;;;14.57;;
3070;SDS011;1546;47.208;9.038;2023-02-15T03:39:07;67.90;;;19.50;;
3070;SDS011;1546;47.208;9.038;2023-02-15T03:41:40;164.27;;;22.60;;
3070;SDS011;1546;47.208;9.038;2023-02-15T03:44:14;207.20;;;25.98;;
3070;SDS011;1546;47.208;9.038;2023-02-15T03:46:45;150.35;;;27.42;;
3070;SDS011;1546;47.208;9.038;2023-02-15T03:49:20;366.60;;;37.85;;
3070;SDS011;1546;47.208;9.038;2023-02-15T03:51:49;98.05;;;24.52;;
3070;SDS011;1546;47.208;9.038;2023-02-15T03:54:20;25.13;;;14.70;;
3070;SDS011;1546;47.208;9.038;2023-02-15T03:57:14;94.05;;;19.92;;
3070;SDS011;1546;47.208;9.038;2023-02-15T04:00:02;33.50;;;14.82;;
3070;SDS011;1546;47.208;9.038;2023-02-15T04:03:11;50.92;;;17.55;;
3070;SDS011;1546;47.208;9.038;2023-02-15T04:05:48;84.90;;;18.75;;
3070;SDS011;1546;47.208;9.038;2023-02-15T04:08:14;32.30;;;15.13;;
3070;SDS011;1546;47.208;9.038;2023-02-15T04:10:41;45.58;;;14.60;;
3070;SDS011;1546;47.208;9.038;2023-02-15T04:13:21;153.73;;;24.42;;
3070;SDS011;1546;47.208;9.038;2023-02-15T04:15:49;29.25;;;16.33;;
3070;SDS011;1546;47.208;9.038;2023-02-15T04:18:30;20.23;;;10.15;;
3070;SDS011;1546;47.208;9.038;2023-02-15T04:21:16;74.10;;;16.50;;
3070;SDS011;1546;47.208;9.038;2023-02-15T04:24:01;21.38;;;11.13;;
3070;SDS011;1546;47.208;9.038;2023-02-15T04:26:46;65.68;;;15.90;;
3070;SDS011;1546;47.208;9.038;2023-02-15T04:29:13;50.38;;;16.75;;
3070;SDS011;1546;47.208;9.038;2023-02-15T04:31:40;26.65;;;13.18;;
3070;SDS011;1546;47.208;9.038;2023-02-15T04:34:08;33.53;;;14.85;;
3070;SDS011;1546;47.208;9.038;2023-02-15T04:36:37;37.83;;;16.27;;
3070;SDS011;1546;47.208;9.038;2023-02-15T04:39:04;22.83;;;13.43;;
3070;SDS011;1546;47.208;9.038;2023-02-15T04:41:32;21.95;;;11.75;;
3070;SDS011;1546;47.208;9.038;2023-02-15T04:43:59;29.80;;;15.30;;
3070;SDS011;1546;47.208;9.038;2023-02-15T04:46:26;49.10;;;17.38;;
3070;SDS011;1546;47.208;9.038;2023-02-15T04:48:54;39.67;;;13.95;;
3070;SDS011;1546;47.208;9.038;2023-02-15T04:51:21;117.78;;;19.23;;
3070;SDS011;1546;47.208;9.038;2023-02-15T04:53:49;40.05;;;16.67;;
3070;SDS011;1546;47.208;9.038;2023-02-15T04:56:17;22.95;;;12.20;;
3070;SDS011;1546;47.208;9.038;2023-02-15T04:58:44;18.85;;;13.10;;
3070;SDS011;1546;47.208;9.038;2023-02-15T05:01:11;29.40;;;13.57;;
3070;SDS011;1546;47.208;9.038;2023-02-15T05:03:38;41.55;;;14.75;;
3070;SDS011;1546;47.208;9.038;2023-02-15T05:06:05;40.22;;;16.27;;
3070;SDS011;1546;47.208;9.038;2023-02-15T05:08:33;22.52;;;13.25;;
3070;SDS011;1546;47.208;9.038;2023-02-15T05:11:01;56.47;;;14.95;;
3070;SDS011;1546;47.208;9.038;2023-02-15T05:13:28;22.13;;;11.98;;
3070;SDS011;1546;47.208;9.038;2023-02-15T05:15:55;24.80;;;13.82;;
3070;SDS011;1546;47.208;9.038;2023-02-15T05:18:22;53.60;;;13.82;;
3070;SDS011;1546;47.208;9.038;2023-02-15T05:20:49;21.35;;;11.45;;
3070;SDS011;1546;47.208;9.038;2023-02-15T05:23:15;110.93;;;22.73;;
3070;SDS011;1546;47.208;9.038;2023-02-15T05:25:46;209.27;;;27.92;;
3070;SDS011;1546;47.208;9.038;2023-02-15T05:28:32;166.48;;;24.90;;
3070;SDS011;1546;47.208;9.038;2023-02-15T05:31:02;47.25;;;16.13;;
3070;SDS011;1546;47.208;9.038;2023-02-15T05:33:30;31.63;;;12.65;;
3070;SDS011;1546;47.208;9.038;2023-02-15T05:35:58;144.43;;;25.17;;
3070;SDS011;1546;47.208;9.038;2023-02-15T05:38:25;21.48;;;10.90;;
3070;SDS011;1546;47.208;9.038;2023-02-15T05:40:52;30.40;;;13.02;;
3070;SDS011;1546;47.208;9.038;2023-02-15T05:43:19;34.03;;;13.07;;
3070;SDS011;1546;47.208;9.038;2023-02-15T05:45:48;24.90;;;12.00;;
3070;SDS011;1546;47.208;9.038;2023-02-15T05:48:15;28.10;;;13.25;;
3070;SDS011;1546;47.208;9.038;2023-02-15T05:50:43;22.88;;;11.23;;
3070;SDS011;1546;47.208;9.038;2023-02-15T05:53:10;33.83;;;12.40;;
3070;SDS011;1546;47.208;9.038;2023-02-15T05:55:37;121.65;;;15.13;;
3070;SDS011;1546;47.208;9.038;2023-02-15T05:58:04;46.30;;;15.20;;
3070;SDS011;1546;47.208;9.038;2023-02-15T06:00:31;82.78;;;17.08;;
3070;SDS011;1546;47.208;9.038;2023-02-15T06:02:59;31.40;;;14.10;;
3070;SDS011;1546;47.208;9.038;2023-02-15T06:05:26;45.50;;;11.57;;
3070;SDS011;1546;47.208;9.038;2023-02-15T06:07:53;40.45;;;12.48;;
3070;SDS011;1546;47.208;9.038;2023-02-15T06:10:20;58.45;;;14.05;;
3070;SDS011;1546;47.208;9.038;2023-02-15T06:12:47;22.70;;;10.80;;
3070;SDS011;1546;47.208;9.038;2023-02-15T06:15:14;39.20;;;13.27;;
3070;SDS011;1546;47.208;9.038;2023-02-15T06:17:41;39.13;;;15.70;;
3070;SDS011;1546;47.208;9.038;2023-02-15T06:20:10;59.83;;;12.30;;
3070;SDS011;1546;47.208;9.038;2023-02-15T06:22:37;31.92;;;12.90;;
3070;SDS011;1546;47.208;9.038;2023-02-15T06:25:04;31.58;;;12.93;;
3070;SDS011;1546;47.208;9.038;2023-02-15T06:27:34;87.57;;;16.95;;
3070;SDS011;1546;47.208;9.038;2023-02-15T06:30:02;93.15;;;15.85;;
3070;SDS011;1546;47.208;9.038;2023-02-15T06:32:29;57.80;;;12.73;;
3070;SDS011;1546;47.208;9.038;2023-02-15T06:34:56;55.25;;;13.68;;
3070;SDS011;1546;47.208;9.038;2023-02-15T06:37:27;45.85;;;14.35;;
3070;SDS011;1546;47.208;9.038;2023-02-15T06:39:54;68.22;;;17.55;;
3070;SDS011;1546;47.208;9.038;2023-02-15T06:42:20;280.80;;;25.13;;
3070;SDS011;1546;47.208;9.038;2023-02-15T06:44:47;111.90;;;22.50;;
3070;SDS011;1546;47.208;9.038;2023-02-15T06:47:14;135.82;;;23.70;;
3070;SDS011;1546;47.208;9.038;2023-02-15T06:49:41;71.32;;;16.88;;
3070;SDS011;1546;47.208;9.038;2023-02-15T06:52:08;35.83;;;14.80;;
3070;SDS011;1546;47.208;9.038;2023-02-15T06:54:36;21.33;;;12.43;;
3070;SDS011;1546;47.208;9.038;2023-02-15T06:57:03;20.85;;;11.27;;
3070;SDS011;1546;47.208;9.038;2023-02-15T06:59:29;58.70;;;11.88;;
3070;SDS011;1546;47.208;9.038;2023-02-15T07:01:56;18.77;;;10.68;;
3070;SDS011;1546;47.208;9.038;2023-02-15T07:04:23;18.42;;;9.77;;
3070;SDS011;1546;47.208;9.038;2023-02-15T07:06:50;27.00;;;11.80;;
3070;SDS011;1546;47.208;9.038;2023-02-15T07:09:17;29.73;;;15.45;;
3070;SDS011;1546;47.208;9.038;2023-02-15T07:11:45;54.63;;;14.50;;
3070;SDS011;1546;47.208;9.038;2023-02-15T07:14:29;41.20;;;14.98;;
3070;SDS011;1546;47.208;9.038;2023-02-15T07:16:56;98.68;;;20.08;;
3070;SDS011;1546;47.208;9.038;2023-02-15T07:19:23;97.57;;;19.45;;
3070;SDS011;1546;47.208;9.038;2023-02-15T07:21:50;21.70;;;12.70;;
3070;SDS011;1546;47.208;9.038;2023-02-15T07:24:17;54.40;;;16.55;;
3070;SDS011;1546;47.208;9.038;2023-02-15T07:26:45;27.45;;;13.23;;
3070;SDS011;1546;47.208;9.038;2023-02-15T07:29:12;62.15;;;13.25;;
3070;SDS011;1546;47.208;9.038;2023-02-15T07:31:39;77.85;;;14.75;;
3070;SDS011;1546;47.208;9.038;2023-02-15T07:34:07;61.38;;;15.98;;
3070;SDS011;1546;47.208;9.038;2023-02-15T07:36:34;58.63;;;14.77;;
3070;SDS011;1546;47.208;9.038;2023-02-15T07:39:00;60.67;;;16.63;;
3070;SDS011;1546;47.208;9.038;2023-02-15T07:41:27;31.27;;;10.80;;
3070;SDS011;1546;47.208;9.038;2023-02-15T07:43:55;58.67;;;15.68;;
3070;SDS011;1546;47.208;9.038;2023-02-15T07:46:22;84.30;;;15.25;;
3070;SDS011;1546;47.208;9.038;2023-02-15T07:48:49;51.10;;;19.08;;
3070;SDS011;1546;47.208;9.038;2023-02-15T07:51:16;45.90;;;12.98;;
3070;SDS011;1546;47.208;9.038;2023-02-15T07:53:43;20.27;;;11.45;;
3070;SDS011;1546;47.208;9.038;2023-02-15T07:56:11;88.72;;;19.13;;
3070;SDS011;1546;47.208;9.038;2023-02-15T07:58:39;46.65;;;12.98;;
3070;SDS011;1546;47.208;9.038;2023-02-15T08:01:22;53.28;;;15.77;;
3070;SDS011;1546;47.208;9.038;2023-02-15T08:03:50;165.65;;;24.60;;
3070;SDS011;1546;47.208;9.038;2023-02-15T08:06:17;135.80;;;23.00;;
3070;SDS011;1546;47.208;9.038;2023-02-15T08:08:43;21.92;;;10.32;;
3070;SDS011;1546;47.208;9.038;2023-02-15T08:11:14;65.57;;;15.20;;
3070;SDS011;1546;47.208;9.038;2023-02-15T08:13:54;29.85;;;13.35;;
3070;SDS011;1546;47.208;9.038;2023-02-15T08:16:26;58.97;;;17.63;;
3070;SDS011;1546;47.208;9.038;2023-02-15T08:18:56;35.60;;;12.25;;
3070;SDS011;1546;47.208;9.038;2023-02-15T08:21:24;17.10;;;11.50;;
3070;SDS011;1546;47.208;9.038;2023-02-15T08:23:53;21.98;;;12.32;;
3070;SDS011;1546;47.208;9.038;2023-02-15T08:26:20;54.72;;;14.32;;
3070;SDS011;1546;47.208;9.038;2023-02-15T08:28:47;17.83;;;8.98;;
3070;SDS011;1546;47.208;9.038;2023-02-15T08:31:15;36.55;;;12.88;;
3070;SDS011;1546;47.208;9.038;2023-02-15T08:33:44;60.95;;;11.75;;
3070;SDS011;1546;47.208;9.038;2023-02-15T08:36:12;92.43;;;15.85;;
3070;SDS011;1546;47.208;9.038;2023-02-15T08:38:41;44.72;;;12.00;;
3070;SDS011;1546;47.208;9.038;2023-02-15T08:41:09;37.55;;;13.50;;
3070;SDS011;1546;47.208;9.038;2023-02-15T08:43:37;73.63;;;14.30;;
3070;SDS011;1546;47.208;9.038;2023-02-15T08:46:04;29.85;;;12.55;;
3070;SDS011;1546;47.208;9.038;2023-02-15T08:48:31;72.65;;;16.08;;
3070;SDS011;1546;47.208;9.038;2023-02-15T08:51:03;27.77;;;12.00;;
3070;SDS011;1546;47.208;9.038;2023-02-15T08:53:31;22.42;;;12.63;;
3070;SDS011;1546;47.208;9.038;2023-02-15T08:55:58;17.88;;;10.95;;
3070;SDS011;1546;47.208;9.038;2023-02-15T08:58:25;18.73;;;11.05;;
3070;SDS011;1546;47.208;9.038;2023-02-15T09:00:52;25.90;;;10.55;;
3070;SDS011;1546;47.208;9.038;2023-02-15T09:03:19;20.95;;;11.05;;
3070;SDS011;1546;47.208;9.038;2023-02-15T09:05:45;20.83;;;9.75;;
3070;SDS011;1546;47.208;9.038;2023-02-15T09:08:14;27.23;;;13.60;;
3070;SDS011;1546;47.208;9.038;2023-02-15T09:10:41;70.78;;;15.02;;
3070;SDS011;1546;47.208;9.038;2023-02-15T09:13:07;16.38;;;9.77;;
3070;SDS011;1546;47.208;9.038;2023-02-15T09:15:34;54.30;;;14.63;;
3070;SDS011;1546;47.208;9.038;2023-02-15T09:18:01;20.60;;;9.80;;
3070;SDS011;1546;47.208;9.038;2023-02-15T09:20:31;19.85;;;10.82;;
3070;SDS011;1546;47.208;9.038;2023-02-15T09:22:58;38.85;;;11.27;;
3070;SDS011;1546;47.208;9.038;2023-02-15T09:25:26;23.88;;;12.05;;
3070;SDS011;1546;47.208;9.038;2023-02-15T09:27:53;23.13;;;11.10;;
3070;SDS011;1546;47.208;9.038;2023-02-15T09:30:20;18.05;;;9.50;;
3070;SDS011;1546;47.208;9.038;2023-02-15T09:32:47;31.83;;;13.38;;
3070;SDS011;1546;47.208;9.038;2023-02-15T09:35:14;34.30;;;11.40;;
3070;SDS011;1546;47.208;9.038;2023-02-15T09:37:41;22.95;;;11.35;;
3070;SDS011;1546;47.208;9.038;2023-02-15T09:40:08;26.30;;;10.63;;
3070;SDS011;1546;47.208;9.038;2023-02-15T09:45:32;43.42;;;10.13;;
3070;SDS011;1546;47.208;9.038;2023-02-15T09:48:19;15.77;;;9.07;;
3070;SDS011;1546;47.208;9.038;2023-02-15T09:50:58;27.98;;;10.40;;
3070;SDS011;1546;47.208;9.038;2023-02-15T09:53:38;21.40;;;10.68;;
3070;SDS011;1546;47.208;9.038;2023-02-15T09:56:19;20.30;;;11.55;;
3070;SDS011;1546;47.208;9.038;2023-02-15T09:58:56;20.77;;;10.65;;
3070;SDS011;1546;47.208;9.038;2023-02-15T10:01:33;24.95;;;11.48;;
3070;SDS011;1546;47.208;9.038;2023-02-15T10:04:14;30.98;;;10.70;;
3070;SDS011;1546;47.208;9.038;2023-02-15T10:07:04;29.60;;;10.60;;
3070;SDS011;1546;47.208;9.038;2023-02-15T10:09:46;22.67;;;10.23;;
3070;SDS011;1546;47.208;9.038;2023-02-15T10:12:34;18.48;;;9.82;;
3070;SDS011;1546;47.208;9.038;2023-02-15T10:15:17;18.90;;;12.10;;
3070;SDS011;1546;47.208;9.038;2023-02-15T10:17:57;19.17;;;9.73;;
3070;SDS011;1546;47.208;9.038;2023-02-15T10:20:35;38.65;;;13.68;;
3070;SDS011;1546;47.208;9.038;2023-02-15T10:23:13;22.98;;;11.07;;
3070;SDS011;1546;47.208;9.038;2023-02-15T10:25:55;35.20;;;12.00;;
3070;SDS011;1546;47.208;9.038;2023-02-15T10:28:26;28.65;;;12.27;;
3070;SDS011;1546;47.208;9.038;2023-02-15T10:31:06;27.92;;;11.02;;
3070;SDS011;1546;47.208;9.038;2023-02-15T10:33:40;18.45;;;10.38;;
3070;SDS011;1546;47.208;9.038;2023-02-15T10:36:21;21.25;;;12.20;;
3070;SDS011;1546;47.208;9.038;2023-02-15T10:38:57;18.38;;;10.75;;
3070;SDS011;1546;47.208;9.038;2023-02-15T10:41:33;23.58;;;13.38;;
3070;SDS011;1546;47.208;9.038;2023-02-15T10:44:10;20.33;;;11.48;;
3070;SDS011;1546;47.208;9.038;2023-02-15T10:47:20;18.90;;;10.32;;
3070;SDS011;1546;47.208;9.038;2023-02-15T10:50:13;19.08;;;11.65;;
3070;SDS011;1546;47.208;9.038;2023-02-15T10:52:53;17.55;;;10.35;;
3070;SDS011;1546;47.208;9.038;2023-02-15T10:55:33;17.92;;;10.60;;
3070;SDS011;1546;47.208;9.038;2023-02-15T10:58:11;19.02;;;11.90;;
3070;SDS011;1546;47.208;9.038;2023-02-15T11:00:50;17.65;;;11.60;;
3070;SDS011;1546;47.208;9.038;2023-02-15T11:03:33;17.77;;;11.80;;
3070;SDS011;1546;47.208;9.038;2023-02-15T11:06:08;19.48;;;13.88;;
3070;SDS011;1546;47.208;9.038;2023-02-15T11:08:39;20.05;;;12.93;;
3070;SDS011;1546;47.208;9.038;2023-02-15T11:11:09;20.50;;;12.13;;
3070;SDS011;1546;47.208;9.038;2023-02-15T11:13:41;19.27;;;13.15;;
3070;SDS011;1546;47.208;9.038;2023-02-15T11:16:13;20.70;;;12.75;;
3070;SDS011;1546;47.208;9.038;2023-02-15T11:18:44;22.70;;;14.45;;
3070;SDS011;1546;47.208;9.038;2023-02-15T11:21:17;21.88;;;12.95;;
3070;SDS011;1546;47.208;9.038;2023-02-15T11:23:48;16.67;;;11.52;;
3070;SDS011;1546;47.208;9.038;2023-02-15T11:26:17;20.08;;;11.45;;
3070;SDS011;1546;47.208;9.038;2023-02-15T11:28:51;16.35;;;10.32;;
3070;SDS011;1546;47.208;9.038;2023-02-15T11:31:22;19.65;;;11.63;;
3070;SDS011;1546;47.208;9.038;2023-02-15T11:33:53;18.27;;;11.55;;
3070;SDS011;1546;47.208;9.038;2023-02-15T11:36:24;22.83;;;13.57;;
3070;SDS011;1546;47.208;9.038;2023-02-15T11:38:58;21.20;;;12.75;;
3070;SDS011;1546;47.208;9.038;2023-02-15T11:41:28;21.00;;;12.48;;
3070;SDS011;1546;47.208;9.038;2023-02-15T11:43:59;19.88;;;12.85;;
3070;SDS011;1546;47.208;9.038;2023-02-15T11:46:32;22.08;;;12.23;;
3070;SDS011;1546;47.208;9.038;2023-02-15T11:49:00;19.85;;;12.35;;
3070;SDS011;1546;47.208;9.038;2023-02-15T11:51:27;20.08;;;12.27;;
3070;SDS011;1546;47.208;9.038;2023-02-15T11:53:55;26.83;;;14.73;;
3070;SDS011;1546;47.208;9.038;2023-02-15T11:56:23;22.00;;;13.13;;
3070;SDS011;1546;47.208;9.038;2023-02-15T11:58:53;23.48;;;14.98;;
3070;SDS011;1546;47.208;9.038;2023-02-15T12:01:24;18.70;;;12.88;;
3070;SDS011;1546;47.208;9.038;2023-02-15T12:03:57;21.02;;;14.63;;
3070;SDS011;1546;47.208;9.038;2023-02-15T12:06:30;22.63;;;14.80;;
3070;SDS011;1546;47.208;9.038;2023-02-15T12:09:01;21.35;;;13.57;;
3070;SDS011;1546;47.208;9.038;2023-02-15T12:11:33;24.73;;;16.40;;
3070;SDS011;1546;47.208;9.038;2023-02-15T12:14:03;20.23;;;14.05;;
3070;SDS011;1546;47.208;9.038;2023-02-15T12:16:32;27.38;;;16.23;;
3070;SDS011;1546;47.208;9.038;2023-02-15T12:19:12;25.20;;;15.32;;
3070;SDS011;1546;47.208;9.038;2023-02-15T12:21:51;21.67;;;13.73;;
3070;SDS011;1546;47.208;9.038;2023-02-15T12:24:20;20.80;;;14.18;;
3070;SDS011;1546;47.208;9.038;2023-02-15T12:26:55;25.65;;;15.18;;
3070;SDS011;1546;47.208;9.038;2023-02-15T12:29:25;22.10;;;14.55;;
3070;SDS011;1546;47.208;9.038;2023-02-15T12:31:55;30.27;;;14.43;;
3070;SDS011;1546;47.208;9.038;2023-02-15T12:34:25;25.45;;;16.77;;
3070;SDS011;1546;47.208;9.038;2023-02-15T12:36:56;27.00;;;15.75;;
3070;SDS011;1546;47.208;9.038;2023-02-15T12:39:27;21.25;;;14.10;;
3070;SDS011;1546;47.208;9.038;2023-02-15T12:42:02;24.92;;;15.50;;
3070;SDS011;1546;47.208;9.038;2023-02-15T12:44:31;25.80;;;17.00;;
3070;SDS011;1546;47.208;9.038;2023-02-15T12:46:59;22.10;;;15.43;;
3070;SDS011;1546;47.208;9.038;2023-02-15T12:49:29;22.13;;;16.60;;
3070;SDS011;1546;47.208;9.038;2023-02-15T12:51:57;20.30;;;15.30;;
3070;SDS011;1546;47.208;9.038;2023-02-15T12:54:31;23.23;;;16.88;;
3070;SDS011;1546;47.208;9.038;2023-02-15T12:57:14;21.83;;;14.13;;
3070;SDS011;1546;47.208;9.038;2023-02-15T12:59:48;23.35;;;15.98;;
3070;SDS011;1546;47.208;9.038;2023-02-15T13:02:18;25.48;;;16.17;;
3070;SDS011;1546;47.208;9.038;2023-02-15T13:04:50;25.58;;;16.33;;
3070;SDS011;1546;47.208;9.038;2023-02-15T13:07:18;22.20;;;14.95;;
3070;SDS011;1546;47.208;9.038;2023-02-15T13:09:46;20.98;;;15.18;;
3070;SDS011;1546;47.208;9.038;2023-02-15T13:12:18;25.55;;;17.25;;
3070;SDS011;1546;47.208;9.038;2023-02-15T13:14:48;21.70;;;15.55;;
3070;SDS011;1546;47.208;9.038;2023-02-15T13:17:17;23.10;;;15.25;;
3070;SDS011;1546;47.208;9.038;2023-02-15T13:19:51;21.10;;;15.75;;
3070;SDS011;1546;47.208;9.038;2023-02-15T13:22:20;24.52;;;16.00;;
3070;SDS011;1546;47.208;9.038;2023-02-15T13:24:51;20.05;;;14.65;;
3070;SDS011;1546;47.208;9.038;2023-02-15T13:27:22;22.48;;;16.08;;
3070;SDS011;1546;47.208;9.038;2023-02-15T13:29:52;21.23;;;15.45;;
3070;SDS011;1546;47.208;9.038;2023-02-15T13:32:25;22.33;;;16.90;;
3070;SDS011;1546;47.208;9.038;2023-02-15T13:34:56;20.13;;;15.88;;
3070;SDS011;1546;47.208;9.038;2023-02-15T13:37:28;24.17;;;17.38;;
3070;SDS011;1546;47.208;9.038;2023-02-15T13:40:07;18.65;;;15.05;;
3070;SDS011;1546;47.208;9.038;2023-02-15T13:42:40;20.40;;;17.40;;
3070;SDS011;1546;47.208;9.038;2023-02-15T13:45:13;23.23;;;15.18;;
3070;SDS011;1546;47.208;9.038;2023-02-15T13:47:54;19.38;;;16.30;;
3070;SDS011;1546;47.208;9.038;2023-02-15T13:50:34;22.00;;;17.25;;
3070;SDS011;1546;47.208;9.038;2023-02-15T13:53:19;20.13;;;15.40;;
3070;SDS011;1546;47.208;9.038;2023-02-15T13:56:06;19.05;;;15.23;;
3070;SDS011;1546;47.208;9.038;2023-02-15T13:58:54;22.92;;;15.80;;
3070;SDS011;1546;47.208;9.038;2023-02-15T14:01:31;19.75;;;15.93;;
3070;SDS011;1546;47.208;9.038;2023-02-15T14:07:18;24.48;;;14.98;;
3070;SDS011;1546;47.208;9.038;2023-02-15T14:10:00;22.35;;;15.95;;
3070;SDS011;1546;47.208;9.038;2023-02-15T14:12:47;18.77;;;15.32;;
3070;SDS011;1546;47.208;9.038;2023-02-15T14:15:26;16.75;;;12.07;;
3070;SDS011;1546;47.208;9.038;2023-02-15T14:18:09;17.65;;;14.65;;
3070;SDS011;1546;47.208;9.038;2023-02-15T14:20:45;18.52;;;13.23;;
3070;SDS011;1546;47.208;9.038;2023-02-15T14:23:26;16.58;;;14.15;;
3070;SDS011;1546;47.208;9.038;2023-02-15T14:26:01;16.48;;;12.93;;
3070;SDS011;1546;47.208;9.038;2023-02-15T14:28:36;17.08;;;13.32;;
3070;SDS011;1546;47.208;9.038;2023-02-15T14:31:08;16.42;;;13.13;;
3070;SDS011;1546;47.208;9.038;2023-02-15T14:33:38;19.10;;;13.30;;
3070;SDS011;1546;47.208;9.038;2023-02-15T14:36:08;15.88;;;12.50;;
3070;SDS011;1546;47.208;9.038;2023-02-15T14:38:42;17.40;;;12.98;;
3070;SDS011;1546;47.208;9.038;2023-02-15T14:41:18;18.93;;;13.53;;
3070;SDS011;1546;47.208;9.038;2023-02-15T14:43:50;17.17;;;12.52;;
3070;SDS011;1546;47.208;9.038;2023-02-15T14:46:29;16.38;;;13.23;;
3070;SDS011;1546;47.208;9.038;2023-02-15T14:49:03;14.77;;;12.33;;
3070;SDS011;1546;47.208;9.038;2023-02-15T14:51:54;15.60;;;12.80;;
3070;SDS011;1546;47.208;9.038;2023-02-15T14:57:24;17.70;;;13.43;;
3070;SDS011;1546;47.208;9.038;2023-02-15T14:59:59;15.33;;;13.27;;
3070;SDS011;1546;47.208;9.038;2023-02-15T15:02:40;14.93;;;13.00;;
3070;SDS011;1546;47.208;9.038;2023-02-15T15:05:11;16.27;;;12.73;;
3070;SDS011;1546;47.208;9.038;2023-02-15T15:07:45;18.20;;;13.50;;
3070;SDS011;1546;47.208;9.038;2023-02-15T15:18:53;18.27;;;13.70;;
3070;SDS011;1546;47.208;9.038;2023-02-15T15:33:21;22.17;;;13.43;;
3070;SDS011;1546;47.208;9.038;2023-02-15T15:36:27;19.25;;;13.38;;
3070;SDS011;1546;47.208;9.038;2023-02-15T15:39:20;21.92;;;13.43;;
3070;SDS011;1546;47.208;9.038;2023-02-15T15:41:57;21.60;;;15.13;;
3070;SDS011;1546;47.208;9.038;2023-02-15T15:44:42;21.90;;;13.63;;
3070;SDS011;1546;47.208;9.038;2023-02-15T15:47:40;20.88;;;13.93;;
3070;SDS011;1546;47.208;9.038;2023-02-15T15:50:30;23.02;;;13.60;;
3070;SDS011;1546;47.208;9.038;2023-02-15T15:52:58;21.48;;;10.50;;
3070;SDS011;1546;47.208;9.038;2023-02-15T15:55:27;24.63;;;12.75;;